Time;durP1;ratioP1;P1;durP2;ratioP2;P2;SDS_P1;SDS_P2;PMS_P1;PMS_P2;Temp;Humidity;BMP_temperature;BMP_pressure;BME280_temperature;BME280_humidity;BME280_pressure;Samples;Min_cycle;Max_cycle;Signal;HPM_P1;HPM_P2
2023/04/05 00:01:34;;;;;;;;;;;;;;;-146.32;100.00;63746.28;4123323;28;20028;-65
2023/04/05 00:03:36;;;;;;;;;;;;;;;-146.32;100.00;63746.28;4123327;28;20460;-65
2023/04/05 00:05:38;;;;;;;;;;;;;;;-146.32;100.00;63746.28;4130000;28;20021;-66
2023/04/05 00:07:41;;;;;;;;;;;;;;;-146.32;100.00;63746.28;4123848;28;20603;-65
2023/04/05 00:09:43;;;;;;;;;;;;;;;-146.32;100.00;63746.28;4123711;28;20029;-64
2023/04/05 00:11:46;;;;;;;;;;;;;;;-146.32;100.00;63746.28;4122057;28;20021;-64
2023/04/05 00:13:48;;;;;;;;;;;;;;;-146.32;100.00;63746.28;4130229;28;20029;-65
2023/04/05 00:15:50;;;;;;;;;;;;;;;-146.32;100.00;63746.28;4123265;28;20016;-65
2023/04/05 00:17:53;;;;;;;;;;;;;;;-146.32;100.00;63746.28;4123408;28;20017;-64
2023/04/05 00:19:56;;;;;;;;;;;;;;;-146.32;100.00;63746.28;4123687;28;20020;-64
2023/04/05 00:21:58;;;;;;;;;;;;;;;-146.32;100.00;63746.28;4123056;28;20005;-65
2023/04/05 00:24:00;;;;;;;;;;;;;;;-146.32;100.00;63746.28;4123936;28;19972;-65
2023/04/05 00:26:02;;;;;;;;;;;;;;;-146.32;100.00;63746.28;4123213;28;20060;-65
2023/04/05 00:28:05;;;;;;;;;;;;;;;-146.32;100.00;63746.28;4123008;28;20004;-65
2023/04/05 00:30:08;;;;;;;;;;;;;;;-146.32;100.00;63746.28;4145548;28;20021;-65
2023/04/05 00:32:10;;;;;;;;;;;;;;;-146.32;100.00;63746.28;4123162;28;20012;-65
2023/04/05 00:34:12;;;;;;;;;;;;;;;-146.32;100.00;63746.28;4111740;28;20016;-65
2023/04/05 00:36:15;;;;;;;;;;;;;;;-146.32;100.00;63746.28;4129323;28;20057;-65
2023/04/05 00:38:18;;;;;;;;;;;;;;;-146.32;100.00;63746.28;4123077;28;20017;-64
2023/04/05 00:40:20;;;;;;;;;;;;;;;-146.32;100.00;63746.28;4129634;28;20032;-65
2023/04/05 00:42:22;;;;;;;;;;;;;;;-146.32;100.00;63746.28;4122967;28;20013;-65
2023/04/05 00:44:27;;;;;;;;;;;;;;;-146.32;100.00;63746.28;4122205;28;20033;-65
2023/04/05 00:46:29;;;;;;;;;;;;;;;-146.32;100.00;63746.28;4128186;28;20025;-64
2023/04/05 00:48:31;;;;;;;;;;;;;;;-146.32;100.00;63746.28;4122898;28;20020;-64
2023/04/05 00:50:33;;;;;;;;;;;;;;;-146.32;100.00;63746.28;4121427;28;20025;-64
2023/04/05 00:52:36;;;;;;;;;;;;;;;-146.32;100.00;63746.28;4122340;28;20475;-64
2023/04/05 00:54:38;;;;;;;;;;;;;;;-146.32;100.00;63746.28;4122284;28;20020;-65
2023/04/05 00:56:41;;;;;;;;;;;;;;;-146.32;100.00;63746.28;4137351;28;20016;-65
2023/04/05 00:58:43;;;;;;;;;;;;;;;-146.32;100.00;63746.28;4137005;28;20028;-64
2023/04/05 01:00:47;;;;;;;;;;;;;;;-146.32;100.00;63746.28;4123370;28;20052;-65
2023/04/05 01:02:50;;;;;;;;;;;;;;;-146.32;100.00;63746.28;4127676;28;20020;-65
2023/04/05 01:04:55;;;;;;;;;;;;;;;-146.32;100.00;63746.28;4121911;28;20014;-65
2023/04/05 01:07:00;;;;;;;;;;;;;;;-146.32;100.00;63746.28;4122664;28;20016;-65
2023/04/05 01:09:05;;;;;;;;;;;;;;;-146.32;100.00;63746.28;4128643;28;20016;-65
2023/04/05 01:11:07;;;;;;;;;;;;;;;-146.32;100.00;63746.28;4128752;28;20025;-65
2023/04/05 01:13:09;;;;;;;;;;;;;;;-146.32;100.00;63746.28;4128835;28;20024;-65
2023/04/05 01:15:11;;;;;;;;;;;;;;;-146.32;100.00;63746.28;4145499;28;20096;-65
2023/04/05 01:17:20;;;;;;;;;;;;;;;-146.32;100.00;63746.28;4122283;28;20013;-62
2023/04/05 01:19:23;;;;;;;;;;;;;;;-146.32;100.00;63746.28;4122735;28;20012;-61
2023/04/05 01:21:32;;;;;;;;;;;;;;;-146.32;100.00;63746.28;4121899;28;20434;-62
2023/04/05 01:23:38;;;;;;;;;;;;;;;-146.32;100.00;63746.28;4144491;28;20584;-62
2023/04/05 01:26:04;;;;;;;;;;;;;;;-146.32;100.00;63746.28;4129042;28;20008;-64
2023/04/05 01:28:16;;;;;;;;;;;;;;;-146.32;100.00;63746.28;4122545;28;19934;-65
2023/04/05 01:30:21;;;;;;;;;;;;;;;-146.32;100.00;63746.28;4127927;28;20108;-65
2023/04/05 01:32:38;;;;;;;;;;;;;;;-146.32;100.00;63746.28;4121994;28;20049;-61
2023/04/05 01:34:41;;;;;;;;;;;;;;;-146.32;100.00;63746.28;4120666;28;20032;-63
2023/04/05 01:36:47;;;;;;;;;;;;;;;-146.32;100.00;63746.28;4122550;28;20012;-64
2023/04/05 01:38:49;;;;;;;;;;;;;;;-146.32;100.00;63746.28;4122927;28;20020;-64
2023/04/05 01:40:51;;;;;;;;;;;;;;;-146.32;100.00;63746.28;4122692;28;20361;-64
2023/04/05 01:42:53;;;;;;;;;;;;;;;-146.32;100.00;63746.28;4122229;28;20021;-64
2023/04/05 01:44:57;;;;;;;;;;;;;;;-146.32;100.00;63746.28;4122461;28;20016;-64
2023/04/05 01:47:01;;;;;;;;;;;;;;;-146.32;100.00;63746.28;4126671;28;20032;-64
2023/04/05 01:49:04;;;;;;;;;;;;;;;-146.32;100.00;63746.28;4145051;28;20024;-65
2023/04/05 01:51:06;;;;;;;;;;;;;;;-146.32;100.00;63746.28;4137717;28;20442;-64
2023/04/05 01:53:08;;;;;;;;;;;;;;;-146.32;100.00;63746.28;4127028;28;20029;-65
2023/04/05 01:55:10;;;;;;;;;;;;;;;-146.32;100.00;63746.28;4128450;28;20373;-64
2023/04/05 01:57:12;;;;;;;;;;;;;;;-146.32;100.00;63746.28;4121859;28;20024;-64
2023/04/05 01:59:14;;;;;;;;;;;;;;;-146.32;100.00;63746.28;4128446;28;20012;-64
2023/04/05 02:01:16;;;;;;;;;;;;;;;-146.32;100.00;63746.28;4153234;28;20008;-65
2023/04/05 02:03:20;;;;;;;;;;;;;;;-146.32;100.00;63746.28;4122356;28;20020;-65
2023/04/05 02:05:22;;;;;;;;;;;;;;;-146.32;100.00;63746.28;4128093;28;20016;-65
2023/04/05 02:07:25;;;;;;;;;;;;;;;-146.32;100.00;63746.28;4122067;28;20056;-64
2023/04/05 02:09:27;;;;;;;;;;;;;;;-146.32;100.00;63746.28;4121950;28;20009;-64
2023/04/05 02:11:30;;;;;;;;;;;;;;;-146.32;100.00;63746.28;4119395;28;20025;-64
2023/04/05 02:13:33;;;;;;;;;;;;;;;-146.32;100.00;63746.28;4121213;28;20032;-64
2023/04/05 02:15:35;;;;;;;;;;;;;;;-146.32;100.00;63746.28;4122638;28;20029;-63
2023/04/05 02:17:44;;;;;;;;;;;;;;;-146.32;100.00;63746.28;4122036;28;20025;-64
2023/04/05 02:19:48;;;;;;;;;;;;;;;-146.32;100.00;63746.28;4121173;28;20013;-65
2023/04/05 02:21:52;;;;;;;;;;;;;;;-146.32;100.00;63746.28;4120773;28;20020;-63
2023/04/05 02:23:54;;;;;;;;;;;;;;;-146.32;100.00;63746.28;4120200;28;20372;-64
2023/04/05 02:25:56;;;;;;;;;;;;;;;-146.32;100.00;63746.28;4120880;28;20028;-64
2023/04/05 02:27:59;;;;;;;;;;;;;;;-146.32;100.00;63746.28;4127313;28;20012;-64
2023/04/05 02:30:01;;;;;;;;;;;;;;;-146.32;100.00;63746.28;4122119;28;20021;-64
2023/04/05 02:32:03;;;;;;;;;;;;;;;-146.32;100.00;63746.28;4127416;28;20053;-64
2023/04/05 02:34:08;;;;;;;;;;;;;;;-146.32;100.00;63746.28;4122969;28;20012;-64
2023/04/05 02:36:11;;;;;;;;;;;;;;;-146.32;100.00;63746.28;4126269;28;20056;-65
2023/04/05 02:38:13;;;;;;;;;;;;;;;-146.32;100.00;63746.28;4125125;28;20020;-64
2023/04/05 02:40:15;;;;;;;;;;;;;;;-146.32;100.00;63746.28;4124305;28;20464;-64
2023/04/05 02:42:17;;;;;;;;;;;;;;;-146.32;100.00;63746.28;4124762;28;20014;-64
2023/04/05 02:44:19;;;;;;;;;;;;;;;-146.32;100.00;63746.28;4124661;28;20428;-64
2023/04/05 02:46:21;;;;;;;;;;;;;;;-146.32;100.00;63746.28;4146547;28;20056;-64
2023/04/05 02:48:23;;;;;;;;;;;;;;;-146.32;100.00;63746.28;4139910;28;20012;-64
2023/04/05 02:50:26;;;;;;;;;;;;;;;-146.32;100.00;63746.28;4139372;28;20627;-65
2023/04/05 02:52:31;;;;;;;;;;;;;;;-146.32;100.00;63746.28;4124268;28;20025;-65
2023/04/05 02:54:33;;;;;;;;;;;;;;;-146.32;100.00;63746.28;4123863;28;20025;-64
2023/04/05 02:56:37;;;;;;;;;;;;;;;-146.32;100.00;63746.28;4130512;28;20029;-65
2023/04/05 02:58:48;;;;;;;;;;;;;;;-146.32;100.00;63746.28;4124635;28;20012;-64
2023/04/05 03:00:54;;;;;;;;;;;;;;;-146.32;100.00;63746.28;4140303;28;20404;-64
2023/04/05 03:03:03;;;;;;;;;;;;;;;-146.32;100.00;63746.28;4123485;28;20037;-64
2023/04/05 03:05:06;;;;;;;;;;;;;;;-146.32;100.00;63746.28;4125319;28;20024;-64
2023/04/05 03:07:09;;;;;;;;;;;;;;;-146.32;100.00;63746.28;4124359;28;20045;-64
2023/04/05 03:09:15;;;;;;;;;;;;;;;-146.32;100.00;63746.28;4124192;28;20029;-64
2023/04/05 03:11:18;;;;;;;;;;;;;;;-146.32;100.00;63746.28;4130781;28;20012;-64
2023/04/05 03:13:27;;;;;;;;;;;;;;;-146.32;100.00;63746.28;4123251;28;19929;-64
2023/04/05 03:15:32;;;;;;;;;;;;;;;-146.32;100.00;63746.28;4123572;28;20033;-63
2023/04/05 03:17:37;;;;;;;;;;;;;;;-146.32;100.00;63746.28;4122545;28;20013;-65
2023/04/05 03:19:39;;;;;;;;;;;;;;;-146.32;100.00;63746.28;4130374;28;20020;-63
2023/04/05 03:21:49;;;;;;;;;;;;;;;-146.32;100.00;63746.28;4130417;28;20025;-64
2023/04/05 03:24:11;;;;;;;;;;;;;;;-146.32;100.00;63746.28;4130925;28;20037;-61
2023/04/05 03:26:17;;;;;;;;;;;;;;;-146.32;100.00;63746.28;4139877;28;20029;-64
2023/04/05 03:28:24;;;;;;;;;;;;;;;-146.32;100.00;63746.28;4161229;28;20633;-62
2023/04/05 03:30:31;;;;;;;;;;;;;;;-146.32;100.00;63746.28;4144688;28;20017;-63
2023/04/05 03:32:40;;;;;;;;;;;;;;;-146.32;100.00;63746.28;4152999;28;20016;-64
2023/04/05 03:34:51;;;;;;;;;;;;;;;-146.32;100.00;63746.28;4130481;28;20016;-62
2023/04/05 03:36:54;;;;;;;;;;;;;;;-146.32;100.00;63746.28;4138649;28;20472;-63
2023/04/05 03:39:05;;;;;;;;;;;;;;;-146.32;100.00;63746.28;4146479;28;20073;-63
2023/04/05 03:41:07;;;;;;;;;;;;;;;-146.32;100.00;63746.28;4138975;28;20024;-61
2023/04/05 03:43:12;;;;;;;;;;;;;;;-146.32;100.00;63746.28;4138723;28;20009;-63
2023/04/05 03:45:14;;;;;;;;;;;;;;;-146.32;100.00;63746.28;4137986;28;20020;-63
2023/04/05 03:47:16;;;;;;;;;;;;;;;-146.32;100.00;63746.28;4144381;28;20039;-61
2023/04/05 03:49:18;;;;;;;;;;;;;;;-146.32;100.00;63746.28;4140568;28;20084;-63
2023/04/05 03:51:20;;;;;;;;;;;;;;;-146.32;100.00;63746.28;4139791;28;20024;-64
2023/04/05 03:53:25;;;;;;;;;;;;;;;-146.32;100.00;63746.28;4146145;28;20391;-61
2023/04/05 03:55:31;;;;;;;;;;;;;;;-146.32;100.00;63746.28;4139043;28;20017;-64
2023/04/05 03:57:38;;;;;;;;;;;;;;;-146.32;100.00;63746.28;4127821;28;20008;-62
2023/04/05 03:59:55;;;;;;;;;;;;;;;-146.32;100.00;63746.28;4130012;28;20008;-63
2023/04/05 04:01:57;;;;;;;;;;;;;;;-146.32;100.00;63746.28;4134657;28;20046;-64
2023/04/05 04:04:00;;;;;;;;;;;;;;;-146.32;100.00;63746.28;4145733;28;20427;-63
2023/04/05 04:06:02;;;;;;;;;;;;;;;-146.32;100.00;63746.28;4155255;28;20029;-62
2023/04/05 04:08:04;;;;;;;;;;;;;;;-146.32;100.00;63746.28;4154540;28;20007;-62
2023/04/05 04:10:07;;;;;;;;;;;;;;;-146.32;100.00;63746.28;4139532;28;20024;-62
2023/04/05 04:12:09;;;;;;;;;;;;;;;-146.32;100.00;63746.28;4138444;28;20020;-64
2023/04/05 04:14:17;;;;;;;;;;;;;;;-146.32;100.00;63746.28;4146604;28;20455;-64
2023/04/05 04:16:36;;;;;;;;;;;;;;;-146.32;100.00;63746.28;4143204;28;20016;-62
2023/04/05 04:18:58;;;;;;;;;;;;;;;-146.32;100.00;63746.28;4129963;28;20037;-63
2023/04/05 04:21:16;;;;;;;;;;;;;;;-146.32;100.00;63746.28;4130281;28;20392;-62
2023/04/05 04:23:44;;;;;;;;;;;;;;;-146.32;100.00;63746.28;4123909;28;20550;-61
2023/04/05 04:26:01;;;;;;;;;;;;;;;-146.32;100.00;63746.28;4129652;28;20028;-61
2023/04/05 04:28:26;;;;;;;;;;;;;;;-146.32;100.00;63746.28;4113504;28;20024;-64
2023/04/05 04:30:42;;;;;;;;;;;;;;;-146.32;100.00;63746.28;4123807;28;20012;-63
2023/04/05 04:33:07;;;;;;;;;;;;;;;-146.32;100.00;63746.28;4095063;28;20412;-62
2023/04/05 04:35:28;;;;;;;;;;;;;;;-146.32;100.00;63746.28;4123450;28;20376;-61
2023/04/05 04:37:46;;;;;;;;;;;;;;;-146.32;100.00;63746.28;4122158;28;20014;-63
2023/04/05 04:40:21;;;;;;;;;;;;;;;-146.32;100.00;63746.28;4109344;28;20546;-63
2023/04/05 04:42:37;;;;;;;;;;;;;;;-146.32;100.00;63746.28;4138570;28;20008;-63
2023/04/05 04:45:01;;;;;;;;;;;;;;;-146.32;100.00;63746.28;4139998;28;20044;-64
2023/04/05 04:47:21;;;;;;;;;;;;;;;-146.32;100.00;63746.28;4145477;28;20479;-63
2023/04/05 04:49:51;;;;;;;;;;;;;;;-146.32;100.00;63746.28;4138188;28;20020;-63
2023/04/05 04:51:53;;;;;;;;;;;;;;;-146.32;100.00;63746.28;4138729;28;20036;-64
2023/04/05 04:53:58;;;;;;;;;;;;;;;-146.32;100.00;63746.28;4139578;28;19978;-64
2023/04/05 04:56:00;;;;;;;;;;;;;;;-146.32;100.00;63746.28;4139107;28;20017;-64
2023/04/05 04:58:08;;;;;;;;;;;;;;;-146.32;100.00;63746.28;4138677;28;20028;-63
2023/04/05 05:00:12;;;;;;;;;;;;;;;-146.32;100.00;63746.28;4139724;28;20036;-64
2023/04/05 05:02:14;;;;;;;;;;;;;;;-146.32;100.00;63746.28;4139505;28;20009;-63
2023/04/05 05:04:16;;;;;;;;;;;;;;;-146.32;100.00;63746.28;4140508;28;20008;-63
2023/04/05 05:06:20;;;;;;;;;;;;;;;-146.32;100.00;63746.28;4145762;28;20052;-64
2023/04/05 05:08:22;;;;;;;;;;;;;;;-146.32;100.00;63746.28;4129847;28;20466;-65
2023/04/05 05:10:25;;;;;;;;;;;;;;;-146.32;100.00;63746.28;4130800;28;20017;-65
2023/04/05 05:12:28;;;;;;;;;;;;;;;-146.32;100.00;63746.28;4124433;28;20024;-65
2023/04/05 05:14:30;;;;;;;;;;;;;;;-146.32;100.00;63746.28;4129297;28;20016;-64
2023/04/05 05:16:32;;;;;;;;;;;;;;;-146.32;100.00;63746.28;4122527;28;20029;-64
2023/04/05 05:18:35;;;;;;;;;;;;;;;-146.32;100.00;63746.28;4122661;28;20020;-65
2023/04/05 05:20:37;;;;;;;;;;;;;;;-146.32;100.00;63746.28;4124574;28;20366;-65
2023/04/05 05:22:41;;;;;;;;;;;;;;;-146.32;100.00;63746.28;4134360;28;20420;-64
2023/04/05 05:24:43;;;;;;;;;;;;;;;-146.32;100.00;63746.28;4122753;28;20084;-64
2023/04/05 05:26:45;;;;;;;;;;;;;;;-146.32;100.00;63746.28;4122409;28;20020;-63
2023/04/05 05:28:48;;;;;;;;;;;;;;;-146.32;100.00;63746.28;4123030;28;20025;-65
2023/04/05 05:30:50;;;;;;;;;;;;;;;-146.32;100.00;63746.28;4122278;28;20077;-66
2023/04/05 05:32:52;;;;;;;;;;;;;;;-146.32;100.00;63746.28;4121143;28;20004;-65
2023/04/05 05:34:54;;;;;;;;;;;;;;;-146.32;100.00;63746.28;4122538;28;19970;-66
2023/04/05 05:36:56;;;;;;;;;;;;;;;-146.32;100.00;63746.28;4121821;28;20574;-65
2023/04/05 05:39:00;;;;;;;;;;;;;;;-146.32;100.00;63746.28;4122590;28;20013;-65
2023/04/05 05:41:02;;;;;;;;;;;;;;;-146.32;100.00;63746.28;4122441;28;20045;-66
2023/04/05 05:43:04;;;;;;;;;;;;;;;-146.32;100.00;63746.28;4120480;28;20012;-65
2023/04/05 05:45:06;;;;;;;;;;;;;;;-146.32;100.00;63746.28;4121476;28;20033;-65
2023/04/05 05:47:08;;;;;;;;;;;;;;;-146.32;100.00;63746.28;4120942;28;20028;-66
2023/04/05 05:49:10;;;;;;;;;;;;;;;-146.32;100.00;63746.28;4121039;28;20060;-66
2023/04/05 05:51:12;;;;;;;;;;;;;;;-146.32;100.00;63746.28;4121905;28;20017;-66
2023/04/05 05:53:15;;;;;;;;;;;;;;;-146.32;100.00;63746.28;4128790;28;20834;-65
2023/04/05 05:55:19;;;;;;;;;;;;;;;-146.32;100.00;63746.28;4126868;28;20024;-65
2023/04/05 05:57:21;;;;;;;;;;;;;;;-146.32;100.00;63746.28;4126842;28;20349;-66
2023/04/05 05:59:23;;;;;;;;;;;;;;;-146.32;100.00;63746.28;4127606;28;20016;-66
2023/04/05 06:01:28;;;;;;;;;;;;;;;-146.32;100.00;63746.28;4126798;28;20017;-65
2023/04/05 06:03:30;;;;;;;;;;;;;;;-146.32;100.00;63746.28;4120044;28;20044;-66
2023/04/05 06:05:32;;;;;;;;;;;;;;;-146.32;100.00;63746.28;4121425;28;20020;-66
2023/04/05 06:07:35;;;;;;;;;;;;;;;-146.32;100.00;63746.28;4121579;28;20002;-66
2023/04/05 06:09:37;;;;;;;;;;;;;;;-146.32;100.00;63746.28;4123989;28;20427;-65
2023/04/05 06:11:41;;;;;;;;;;;;;;;-146.32;100.00;63746.28;4124656;28;20021;-66
2023/04/05 06:13:43;;;;;;;;;;;;;;;-146.32;100.00;63746.28;4125227;28;20020;-66
2023/04/05 06:15:45;;;;;;;;;;;;;;;-146.32;100.00;63746.28;4125638;28;20022;-66
2023/04/05 06:17:47;;;;;;;;;;;;;;;-146.32;100.00;63746.28;4124944;28;20013;-66
2023/04/05 06:19:49;;;;;;;;;;;;;;;-146.32;100.00;63746.28;4125438;28;20009;-66
2023/04/05 06:21:51;;;;;;;;;;;;;;;-146.32;100.00;63746.28;4125082;28;20021;-66
2023/04/05 06:23:53;;;;;;;;;;;;;;;-146.32;100.00;63746.28;4125470;28;20018;-65
2023/04/05 06:25:55;;;;;;;;;;;;;;;-146.32;100.00;63746.28;4125713;28;20016;-65
2023/04/05 06:27:59;;;;;;;;;;;;;;;-146.32;100.00;63746.28;4124988;28;19969;-66
2023/04/05 06:30:01;;;;;;;;;;;;;;;-146.32;100.00;63746.28;4125207;28;20024;-65
2023/04/05 06:32:03;;;;;;;;;;;;;;;-146.32;100.00;63746.28;4124730;28;20448;-65
2023/04/05 06:34:05;;;;;;;;;;;;;;;-146.32;100.00;63746.28;4125150;28;20013;-65
2023/04/05 06:36:07;;;;;;;;;;;;;;;-146.32;100.00;63746.28;4124888;28;20017;-66
2023/04/05 06:38:09;;;;;;;;;;;;;;;-146.32;100.00;63746.28;4122497;28;20372;-66
2023/04/05 06:40:11;;;;;;;;;;;;;;;-146.32;100.00;63746.28;4124006;28;20020;-65
2023/04/05 06:42:13;;;;;;;;;;;;;;;-146.32;100.00;63746.28;4124497;28;20012;-66
2023/04/05 06:44:22;;;;;;;;;;;;;;;-146.32;100.00;63746.28;4123676;28;20034;-66
2023/04/05 06:46:25;;;;;;;;;;;;;;;-146.32;100.00;63746.28;4124396;28;20072;-66
2023/04/05 06:48:28;;;;;;;;;;;;;;;-146.32;100.00;63746.28;4125387;28;20010;-66
2023/04/05 06:50:30;;;;;;;;;;;;;;;-146.32;100.00;63746.28;4124985;28;20025;-66
2023/04/05 06:52:32;;;;;;;;;;;;;;;-146.32;100.00;63746.28;4124372;28;20457;-66
2023/04/05 06:54:34;;;;;;;;;;;;;;;-146.32;100.00;63746.28;4124585;28;20020;-66
2023/04/05 06:56:36;;;;;;;;;;;;;;;-146.32;100.00;63746.28;4124401;28;20020;-66
2023/04/05 06:58:38;;;;;;;;;;;;;;;-146.32;100.00;63746.28;4124921;28;20020;-66
2023/04/05 07:00:41;;;;;;;;;;;;;;;-146.32;100.00;63746.28;4124184;28;20455;-66
2023/04/05 07:02:43;;;;;;;;;;;;;;;-146.32;100.00;63746.28;4122057;28;20024;-66
2023/04/05 07:04:45;;;;;;;;;;;;;;;-146.32;100.00;63746.28;4125193;28;20016;-66
2023/04/05 07:06:47;;;;;;;;;;;;;;;-146.32;100.00;63746.28;4123250;28;20025;-66
2023/04/05 07:08:49;;;;;;;;;;;;;;;-146.32;100.00;63746.28;4125868;28;20020;-66
2023/04/05 07:10:51;;;;;;;;;;;;;;;-146.32;100.00;63746.28;4125238;28;20044;-66
2023/04/05 07:12:53;;;;;;;;;;;;;;;-146.32;100.00;63746.28;4124974;28;20013;-66
2023/04/05 07:14:55;;;;;;;;;;;;;;;-146.32;100.00;63746.28;4124596;28;20018;-66
2023/04/05 07:16:59;;;;;;;;;;;;;;;-146.32;100.00;63746.28;4124583;28;20012;-66
2023/04/05 07:19:04;;;;;;;;;;;;;;;-146.32;100.00;63746.28;4130174;28;21687;-66
2023/04/05 07:21:06;;;;;;;;;;;;;;;-146.32;100.00;63746.28;4124621;28;20008;-66
2023/04/05 07:23:08;;;;;;;;;;;;;;;-146.32;100.00;63746.28;4124656;28;20013;-66
2023/04/05 07:25:11;;;;;;;;;;;;;;;-146.32;100.00;63746.28;4124400;28;20029;-66
2023/04/05 07:27:13;;;;;;;;;;;;;;;-146.32;100.00;63746.28;4124365;28;20029;-66
2023/04/05 07:29:15;;;;;;;;;;;;;;;-146.32;100.00;63746.28;4124559;28;20004;-66
2023/04/05 07:31:17;;;;;;;;;;;;;;;-146.32;100.00;63746.28;4125621;28;20013;-66
2023/04/05 07:33:21;;;;;;;;;;;;;;;-146.32;100.00;63746.28;4139458;28;21437;-66
2023/04/05 07:35:23;;;;;;;;;;;;;;;-146.32;100.00;63746.28;4140874;28;20021;-65
2023/04/05 07:37:26;;;;;;;;;;;;;;;-146.32;100.00;63746.28;4140261;28;20060;-65
2023/04/05 07:39:28;;;;;;;;;;;;;;;-146.32;100.00;63746.28;4140389;28;20017;-66
2023/04/05 07:41:31;;;;;;;;;;;;;;;-146.32;100.00;63746.28;4140133;28;20028;-65
2023/04/05 07:43:33;;;;;;;;;;;;;;;-146.32;100.00;63746.28;4139415;28;20004;-65
2023/04/05 07:45:35;;;;;;;;;;;;;;;-146.32;100.00;63746.28;4140387;28;20020;-65
2023/04/05 07:47:37;;;;;;;;;;;;;;;-146.32;100.00;63746.28;4139260;28;20452;-65
2023/04/05 07:49:41;;;;;;;;;;;;;;;-146.32;100.00;63746.28;4139678;28;20440;-65
2023/04/05 07:51:43;;;;;;;;;;;;;;;-146.32;100.00;63746.28;4144160;28;20024;-65
2023/04/05 07:53:45;;;;;;;;;;;;;;;-146.32;100.00;63746.28;4139413;28;20032;-64
2023/04/05 07:55:47;;;;;;;;;;;;;;;-146.32;100.00;63746.28;4139183;28;20020;-65
2023/04/05 07:57:49;;;;;;;;;;;;;;;-146.32;100.00;63746.28;4138965;28;20095;-64
2023/04/05 07:59:54;;;;;;;;;;;;;;;-146.32;100.00;63746.28;4139954;28;20382;-64
2023/04/05 08:01:56;;;;;;;;;;;;;;;-146.32;100.00;63746.28;4139078;28;20024;-64
2023/04/05 08:03:58;;;;;;;;;;;;;;;-146.32;100.00;63746.28;4139417;28;20044;-66
2023/04/05 08:06:02;;;;;;;;;;;;;;;-146.32;100.00;63746.28;4139264;28;20365;-66
2023/04/05 08:08:04;;;;;;;;;;;;;;;-146.32;100.00;63746.28;4139472;28;20032;-66
2023/04/05 08:10:06;;;;;;;;;;;;;;;-146.32;100.00;63746.28;4139325;28;20016;-65
2023/04/05 08:12:10;;;;;;;;;;;;;;;-146.32;100.00;63746.28;4140460;28;19930;-66
2023/04/05 08:14:12;;;;;;;;;;;;;;;-146.32;100.00;63746.28;4140276;28;20018;-66
2023/04/05 08:16:14;;;;;;;;;;;;;;;-146.32;100.00;63746.28;4140562;28;20424;-65
2023/04/05 08:18:16;;;;;;;;;;;;;;;-146.32;100.00;63746.28;4139272;28;20029;-65
2023/04/05 08:20:18;;;;;;;;;;;;;;;-146.32;100.00;63746.28;4141449;28;20016;-65
2023/04/05 08:22:21;;;;;;;;;;;;;;;-146.32;100.00;63746.28;4138610;28;20021;-65
2023/04/05 08:24:23;;;;;;;;;;;;;;;-146.32;100.00;63746.28;4139882;28;20016;-66
2023/04/05 08:26:25;;;;;;;;;;;;;;;-146.32;100.00;63746.28;4139439;28;20378;-65
2023/04/05 08:28:27;;;;;;;;;;;;;;;-146.32;100.00;63746.28;4140076;28;20736;-65
2023/04/05 08:30:29;;;;;;;;;;;;;;;-146.32;100.00;63746.28;4140186;28;20375;-65
2023/04/05 08:32:31;;;;;;;;;;;;;;;-146.32;100.00;63746.28;4138428;28;20027;-65
2023/04/05 08:34:33;;;;;;;;;;;;;;;-146.32;100.00;63746.28;4138934;28;20024;-66
2023/04/05 08:36:35;;;;;;;;;;;;;;;-146.32;100.00;63746.28;4138778;28;20028;-66
2023/04/05 08:38:39;;;;;;;;;;;;;;;-146.32;100.00;63746.28;4139538;28;20004;-66
2023/04/05 08:40:42;;;;;;;;;;;;;;;-146.32;100.00;63746.28;4138948;28;20060;-65
2023/04/05 08:42:46;;;;;;;;;;;;;;;-146.32;100.00;63746.28;4138528;28;20017;-65
2023/04/05 08:44:48;;;;;;;;;;;;;;;-146.32;100.00;63746.28;4139103;28;20020;-65
2023/04/05 08:46:50;;;;;;;;;;;;;;;-146.32;100.00;63746.28;4139479;28;20031;-66
2023/04/05 08:48:52;;;;;;;;;;;;;;;-146.32;100.00;63746.28;4139020;28;20056;-65
2023/04/05 08:50:54;;;;;;;;;;;;;;;-146.32;100.00;63746.28;4141307;28;20611;-66
2023/04/05 08:52:56;;;;;;;;;;;;;;;-146.32;100.00;63746.28;4139933;28;20029;-65
2023/04/05 08:55:00;;;;;;;;;;;;;;;-146.32;100.00;63746.28;4139917;28;20359;-65
2023/04/05 08:57:02;;;;;;;;;;;;;;;-146.32;100.00;63746.28;4138700;28;20028;-65
2023/04/05 08:59:05;;;;;;;;;;;;;;;-146.32;100.00;63746.28;4139487;28;20525;-65
2023/04/05 09:01:07;;;;;;;;;;;;;;;-146.32;100.00;63746.28;4139971;28;20008;-65
2023/04/05 09:03:11;;;;;;;;;;;;;;;-146.32;100.00;63746.28;4138878;28;20008;-66
2023/04/05 09:05:13;;;;;;;;;;;;;;;-146.32;100.00;63746.28;4138259;28;20039;-66
2023/04/05 09:07:15;;;;;;;;;;;;;;;-146.32;100.00;63746.28;4136360;28;20020;-65
2023/04/05 09:09:17;;;;;;;;;;;;;;;-146.32;100.00;63746.28;4137252;28;20048;-66
2023/04/05 09:11:21;;;;;;;;;;;;;;;-146.32;100.00;63746.28;4136821;28;20016;-66
2023/04/05 09:13:23;;;;;;;;;;;;;;;-146.32;100.00;63746.28;4136736;28;20094;-65
2023/04/05 09:15:25;;;;;;;;;;;;;;;-146.32;100.00;63746.28;4136473;28;20025;-66
2023/04/05 09:17:28;;;;;;;;;;;;;;;-146.32;100.00;63746.28;4138055;28;20447;-66
2023/04/05 09:19:30;;;;;;;;;;;;;;;-146.32;100.00;63746.28;4138423;28;20028;-65
2023/04/05 09:21:41;;;;;;;;;;;;;;;-146.32;100.00;63746.28;4136485;28;19980;-65
2023/04/05 09:23:51;;;;;;;;;;;;;;;-146.32;100.00;63746.28;4139021;28;20004;-65
2023/04/05 09:25:53;;;;;;;;;;;;;;;-146.32;100.00;63746.28;4139376;28;20597;-66
2023/04/05 09:27:56;;;;;;;;;;;;;;;-146.32;100.00;63746.28;4138129;28;20020;-66
2023/04/05 09:29:58;;;;;;;;;;;;;;;-146.32;100.00;63746.28;4138645;28;20024;-66
2023/04/05 09:32:00;;;;;;;;;;;;;;;-146.32;100.00;63746.28;4137775;28;20000;-66
2023/04/05 09:34:03;;;;;;;;;;;;;;;-146.32;100.00;63746.28;4139230;28;20032;-65
2023/04/05 09:36:05;;;;;;;;;;;;;;;-146.32;100.00;63746.28;4138441;28;20363;-65
2023/04/05 09:38:07;;;;;;;;;;;;;;;-146.32;100.00;63746.28;4138151;28;20016;-66
2023/04/05 09:40:13;;;;;;;;;;;;;;;-146.32;100.00;63746.28;4144617;28;20004;-65
2023/04/05 09:42:15;;;;;;;;;;;;;;;-146.32;100.00;63746.28;4138035;28;20031;-66
2023/04/05 09:44:20;;;;;;;;;;;;;;;-146.32;100.00;63746.28;4160357;28;20016;-65
2023/04/05 09:46:30;;;;;;;;;;;;;;;-146.32;100.00;63746.28;4139025;28;20016;-66
2023/04/05 09:48:45;;;;;;;;;;;;;;;-146.32;100.00;63746.28;4138406;28;20021;-66
2023/04/05 09:50:48;;;;;;;;;;;;;;;-146.32;100.00;63746.28;4138354;28;20364;-66
2023/04/05 09:52:51;;;;;;;;;;;;;;;-146.32;100.00;63746.28;4137626;28;20530;-66
2023/04/05 09:54:54;;;;;;;;;;;;;;;-146.32;100.00;63746.28;4138993;28;20036;-66
2023/04/05 09:56:57;;;;;;;;;;;;;;;-146.32;100.00;63746.28;4138350;28;20045;-66
2023/04/05 09:59:00;;;;;;;;;;;;;;;-146.32;100.00;63746.28;4138391;28;20016;-66
2023/04/05 10:01:03;;;;;;;;;;;;;;;-146.32;100.00;63746.28;4138345;28;20028;-65
2023/04/05 10:03:05;;;;;;;;;;;;;;;-146.32;100.00;63746.28;4138150;28;20008;-66
2023/04/05 10:05:10;;;;;;;;;;;;;;;-146.32;100.00;63746.28;4136852;28;20423;-66
2023/04/05 10:07:13;;;;;;;;;;;;;;;-146.32;100.00;63746.28;4137836;28;20044;-66
2023/04/05 10:09:16;;;;;;;;;;;;;;;-146.32;100.00;63746.28;4138081;28;20029;-65
2023/04/05 10:11:18;;;;;;;;;;;;;;;-146.32;100.00;63746.28;4138273;28;20495;-66
2023/04/05 10:13:20;;;;;;;;;;;;;;;-146.32;100.00;63746.28;4137461;28;21461;-66
2023/04/05 10:15:22;;;;;;;;;;;;;;;-146.32;100.00;63746.28;4138181;28;20447;-66
2023/04/05 10:17:28;;;;;;;;;;;;;;;-146.32;100.00;63746.28;4138381;28;20024;-66
2023/04/05 10:19:32;;;;;;;;;;;;;;;-146.32;100.00;63746.28;4138421;28;20028;-65
2023/04/05 10:21:35;;;;;;;;;;;;;;;-146.32;100.00;63746.28;4138009;28;20018;-66
2023/04/05 10:23:37;;;;;;;;;;;;;;;-146.32;100.00;63746.28;4138012;28;20021;-65